createdAt,value
2017-10-28T00:00:03.934Z,7.30
2017-10-28T00:02:33.098Z,7.20
2017-10-28T00:05:01.510Z,7.20
2017-10-28T00:07:30.707Z,7.10
2017-10-28T00:09:59.884Z,7.10
2017-10-28T00:12:28.300Z,7.10
2017-10-28T00:14:56.886Z,7.00
2017-10-28T00:17:25.301Z,7.00
2017-10-28T00:19:53.711Z,7.00
2017-10-28T00:22:22.143Z,7.00
2017-10-28T00:24:50.551Z,7.00
2017-10-28T00:27:18.970Z,7.00
2017-10-28T00:29:47.426Z,7.00
2017-10-28T00:32:21.314Z,7.10
2017-10-28T00:34:57.535Z,7.00
2017-10-28T00:37:26.039Z,7.00
2017-10-28T00:39:54.467Z,6.90
2017-10-28T00:42:23.666Z,6.80
2017-10-28T00:44:52.846Z,6.80
2017-10-28T00:47:22.023Z,6.80
2017-10-28T00:49:50.453Z,6.70
2017-10-28T00:52:18.862Z,6.80
2017-10-28T00:54:47.273Z,6.70
2017-10-28T00:57:15.700Z,6.70
2017-10-28T00:59:44.122Z,6.80
2017-10-28T01:02:12.538Z,6.80
2017-10-28T01:04:41.734Z,6.80
2017-10-28T01:07:10.914Z,6.80
2017-10-28T01:09:40.110Z,6.90
2017-10-28T01:12:09.294Z,6.90
2017-10-28T01:14:37.713Z,6.90
2017-10-28T01:17:05.422Z,6.90
2017-10-28T01:19:33.503Z,6.80
2017-10-28T01:22:01.594Z,6.80
2017-10-28T01:24:30.758Z,6.70
2017-10-28T01:26:59.190Z,6.70
2017-10-28T01:29:27.840Z,6.70
2017-10-28T01:31:56.270Z,6.60
2017-10-28T01:34:24.703Z,6.60
2017-10-28T01:36:53.873Z,6.50
2017-10-28T01:39:22.287Z,6.50
2017-10-28T01:41:51.479Z,6.50
2017-10-28T01:44:20.651Z,6.50
2017-10-28T01:46:49.057Z,6.50
2017-10-28T01:49:18.243Z,6.50
2017-10-28T01:51:47.420Z,6.60
2017-10-28T01:54:16.598Z,6.70
2017-10-28T01:56:45.015Z,6.60
2017-10-28T01:59:14.200Z,6.70
2017-10-28T02:01:42.629Z,6.70
2017-10-28T02:04:11.058Z,6.80
2017-10-28T02:06:39.466Z,6.80
2017-10-28T02:09:08.648Z,6.80
2017-10-28T02:11:37.840Z,6.80
2017-10-28T02:14:06.258Z,6.80
2017-10-28T02:16:34.676Z,6.80
2017-10-28T02:19:03.116Z,6.80
2017-10-28T02:21:31.534Z,6.80
2017-10-28T02:23:59.978Z,6.80
2017-10-28T02:26:28.414Z,6.80
2017-10-28T02:28:57.591Z,6.80
2017-10-28T02:31:26.015Z,6.80
2017-10-28T02:33:54.447Z,6.90
2017-10-28T02:36:22.864Z,6.90
2017-10-28T02:38:52.049Z,6.90
2017-10-28T02:41:21.241Z,6.90
2017-10-28T02:43:50.425Z,6.90
2017-10-28T02:46:18.835Z,6.90
2017-10-28T02:48:47.263Z,6.90
2017-10-28T02:51:15.663Z,6.90
2017-10-28T02:53:44.075Z,6.90
2017-10-28T02:56:12.499Z,6.80
2017-10-28T02:58:40.235Z,6.80
2017-10-28T03:01:08.307Z,6.70
2017-10-28T03:03:36.747Z,6.80
2017-10-28T03:06:05.582Z,6.80
2017-10-28T03:08:34.010Z,6.80
2017-10-28T03:11:02.512Z,6.80
2017-10-28T03:13:30.570Z,6.70
2017-10-28T03:15:59.758Z,6.70
2017-10-28T03:18:28.946Z,6.70
2017-10-28T03:20:57.368Z,6.70
2017-10-28T03:23:25.787Z,6.70
2017-10-28T03:25:54.208Z,6.70
2017-10-28T03:28:22.622Z,6.60
2017-10-28T03:30:51.031Z,6.60
2017-10-28T03:33:19.462Z,6.50
2017-10-28T03:35:47.880Z,6.50
2017-10-28T03:38:16.304Z,6.40
2017-10-28T03:40:44.730Z,6.40
2017-10-28T03:43:13.139Z,6.40
2017-10-28T03:45:42.330Z,6.40
2017-10-28T03:48:11.531Z,6.40
2017-10-28T03:50:40.720Z,6.40
2017-10-28T03:53:09.901Z,6.40
2017-10-28T03:55:38.314Z,6.30
2017-10-28T03:58:07.497Z,6.40
2017-10-28T04:00:36.325Z,6.40
2017-10-28T04:03:04.745Z,6.40
2017-10-28T04:05:33.301Z,6.40
2017-10-28T04:08:01.711Z,6.40
2017-10-28T04:10:30.152Z,6.40
2017-10-28T04:12:58.565Z,6.40
2017-10-28T04:15:26.978Z,6.40
2017-10-28T04:17:56.169Z,6.50
2017-10-28T04:20:25.357Z,6.50
2017-10-28T04:22:54.551Z,6.50
2017-10-28T04:25:23.742Z,6.40
2017-10-28T04:27:52.151Z,6.40
2017-10-28T04:30:20.568Z,6.40
2017-10-28T04:32:49.325Z,6.30
2017-10-28T04:35:17.742Z,6.30
2017-10-28T04:37:46.680Z,6.40
2017-10-28T04:40:14.772Z,6.40
2017-10-28T04:42:43.199Z,6.40
2017-10-28T04:45:11.614Z,6.40
2017-10-28T04:47:40.046Z,6.40
2017-10-28T04:50:08.459Z,6.40
2017-10-28T04:52:36.885Z,6.40
2017-10-28T04:55:04.970Z,6.40
2017-10-28T04:57:33.390Z,6.30
2017-10-28T05:00:02.629Z,6.30
2017-10-28T05:02:31.140Z,6.30
2017-10-28T05:04:59.210Z,6.30
2017-10-28T05:07:27.632Z,6.30
2017-10-28T05:09:55.743Z,6.30
2017-10-28T05:12:23.839Z,6.30
2017-10-28T05:14:53.009Z,6.20
2017-10-28T05:17:21.427Z,6.20
2017-10-28T05:19:50.601Z,6.20
2017-10-28T05:22:19.764Z,6.20
2017-10-28T05:24:47.846Z,6.20
2017-10-28T05:27:16.255Z,6.20
2017-10-28T05:29:44.666Z,6.20
2017-10-28T05:32:13.256Z,6.20
2017-10-28T05:34:41.676Z,6.20
2017-10-28T05:37:20.616Z,6.20
2017-10-28T05:39:49.040Z,6.10
2017-10-28T05:42:18.233Z,6.10
2017-10-28T05:44:46.694Z,6.10
2017-10-28T05:47:15.550Z,6.00
2017-10-28T05:49:43.966Z,6.00
2017-10-28T05:52:12.039Z,6.00
2017-10-28T05:54:40.441Z,6.00
2017-10-28T05:57:08.965Z,6.00
2017-10-28T05:59:37.397Z,6.00
2017-10-28T06:02:05.849Z,6.00
2017-10-28T06:04:35.026Z,6.00
2017-10-28T06:07:03.438Z,6.00
2017-10-28T06:09:31.842Z,6.00
2017-10-28T06:12:00.305Z,6.00
2017-10-28T06:14:28.738Z,5.90
2017-10-28T06:16:57.153Z,5.90
2017-10-28T06:19:25.581Z,6.00
2017-10-28T06:21:54.018Z,6.00
2017-10-28T06:24:22.430Z,6.00
2017-10-28T06:26:50.863Z,6.10
2017-10-28T06:29:19.564Z,6.10
2017-10-28T06:31:47.982Z,6.20
2017-10-28T06:34:16.407Z,6.20
2017-10-28T06:36:45.365Z,6.30
2017-10-28T06:39:13.765Z,6.30
2017-10-28T06:41:42.947Z,6.30
2017-10-28T06:44:12.143Z,6.40
2017-10-28T06:46:41.328Z,6.40
2017-10-28T06:49:09.751Z,6.40
2017-10-28T06:51:38.272Z,6.40
2017-10-28T06:54:06.679Z,6.40
2017-10-28T06:56:35.867Z,6.50
2017-10-28T06:59:04.283Z,6.50
2017-10-28T07:01:32.508Z,6.60
2017-10-28T07:04:00.927Z,6.70
2017-10-28T07:06:29.367Z,6.70
2017-10-28T07:08:57.121Z,6.70
2017-10-28T07:11:25.751Z,6.70
2017-10-28T07:13:54.246Z,6.60
2017-10-28T07:16:22.655Z,6.70
2017-10-28T07:18:51.070Z,6.70
2017-10-28T07:21:20.517Z,7.00
2017-10-28T07:23:49.166Z,6.90
2017-10-28T07:26:18.288Z,7.10
2017-10-28T07:28:46.962Z,7.20
2017-10-28T07:31:15.425Z,7.20
2017-10-28T07:33:43.842Z,7.30
2017-10-28T07:36:12.319Z,7.30
2017-10-28T07:38:40.950Z,7.40
2017-10-28T07:41:09.364Z,7.40
2017-10-28T07:43:37.795Z,7.40
2017-10-28T07:46:06.201Z,7.30
2017-10-28T07:48:35.381Z,7.30
2017-10-28T07:51:03.805Z,7.20
2017-10-28T07:53:32.217Z,7.30
2017-10-28T07:56:00.627Z,7.30
2017-10-28T07:58:29.819Z,7.20
2017-10-28T08:00:59.015Z,7.20
2017-10-28T08:03:28.765Z,7.20
2017-10-28T08:05:57.184Z,7.20
2017-10-28T08:08:25.605Z,7.20
2017-10-28T08:10:54.043Z,7.30
2017-10-28T08:13:23.771Z,7.30
2017-10-28T08:15:52.952Z,7.50
2017-10-28T08:18:21.361Z,7.40
2017-10-28T08:20:50.559Z,7.70
2017-10-28T08:23:19.776Z,7.70
2017-10-28T08:25:47.489Z,7.70
2017-10-28T08:28:15.917Z,7.80
2017-10-28T08:30:44.323Z,7.80
2017-10-28T08:33:12.385Z,7.90
2017-10-28T08:35:40.810Z,8.00
2017-10-28T08:38:09.975Z,8.10
2017-10-28T08:40:38.392Z,8.00
2017-10-28T08:43:07.588Z,8.10
2017-10-28T08:45:36.821Z,8.10
2017-10-28T08:48:05.234Z,8.10
2017-10-28T08:50:34.158Z,8.10
2017-10-28T08:53:02.667Z,8.20
2017-10-28T08:55:31.082Z,8.20
2017-10-28T08:57:59.502Z,8.10
2017-10-28T09:00:27.568Z,8.30
2017-10-28T09:02:56.777Z,8.40
2017-10-28T09:05:25.210Z,8.40
2017-10-28T09:07:53.625Z,8.50
2017-10-28T09:10:22.805Z,8.70
2017-10-28T09:12:52.041Z,8.60
2017-10-28T09:15:20.553Z,8.60
2017-10-28T09:17:48.973Z,8.70
2017-10-28T09:20:18.160Z,8.80
2017-10-28T09:22:47.341Z,8.90
2017-10-28T09:25:15.738Z,8.80
2017-10-28T09:27:44.922Z,9.20
2017-10-28T09:30:13.333Z,9.20
2017-10-28T09:32:41.768Z,9.30
2017-10-28T09:35:10.203Z,9.50
2017-10-28T09:37:38.603Z,9.50
2017-10-28T09:40:07.011Z,9.70
2017-10-28T09:42:35.439Z,9.80
2017-10-28T09:45:03.506Z,9.70
2017-10-28T09:47:31.920Z,9.70
2017-10-28T09:50:00.343Z,9.70
2017-10-28T09:52:29.535Z,10.00
2017-10-28T09:54:58.717Z,10.40
2017-10-28T09:57:27.919Z,10.50
2017-10-28T09:59:57.102Z,10.60
2017-10-28T10:02:25.523Z,10.50
2017-10-28T10:04:53.956Z,10.30
2017-10-28T10:07:22.369Z,10.10
2017-10-28T10:09:50.783Z,10.00
2017-10-28T10:12:19.202Z,10.20
2017-10-28T10:14:48.387Z,11.40
2017-10-28T10:17:16.801Z,11.40
2017-10-28T10:19:45.230Z,11.90
2017-10-28T10:22:13.637Z,12.50
2017-10-28T10:24:42.808Z,11.60
2017-10-28T10:27:11.247Z,11.60
2017-10-28T10:29:39.647Z,11.50
2017-10-28T10:32:08.061Z,11.20
2017-10-28T10:34:36.494Z,10.80
2017-10-28T10:37:04.894Z,10.50
2017-10-28T10:39:33.285Z,10.20
2017-10-28T10:42:01.699Z,10.10
2017-10-28T10:44:30.873Z,10.30
2017-10-28T10:46:59.285Z,10.30
2017-10-28T10:49:27.718Z,10.30
2017-10-28T10:51:56.127Z,10.50
2017-10-28T10:54:25.300Z,10.70
2017-10-28T10:56:53.714Z,10.70
2017-10-28T10:59:22.122Z,10.70
2017-10-28T11:01:50.565Z,10.90
2017-10-28T11:04:18.995Z,11.10
2017-10-28T11:06:47.406Z,11.30
2017-10-28T11:09:16.586Z,11.30
2017-10-28T11:11:45.028Z,11.30
2017-10-28T11:14:13.440Z,10.90
2017-10-28T11:16:41.850Z,10.80
2017-10-28T11:19:11.066Z,10.70
2017-10-28T11:21:39.474Z,10.70
2017-10-28T11:24:07.892Z,10.60
2017-10-28T11:26:37.110Z,10.30
2017-10-28T11:29:05.533Z,10.30
2017-10-28T11:31:33.952Z,10.50
2017-10-28T11:34:03.167Z,10.50
2017-10-28T11:36:31.578Z,10.50
2017-10-28T11:38:59.986Z,11.00
2017-10-28T11:41:28.419Z,10.80
2017-10-28T11:43:56.827Z,10.20
2017-10-28T11:46:25.231Z,10.10
2017-10-28T11:48:53.658Z,10.30
2017-10-28T11:51:22.075Z,10.30
2017-10-28T11:53:50.488Z,10.20
2017-10-28T11:56:18.903Z,10.20
2017-10-28T11:58:46.966Z,10.30
2017-10-28T12:01:15.387Z,10.30
2017-10-28T12:03:43.833Z,10.10
2017-10-28T12:06:12.487Z,10.30
2017-10-28T12:08:40.898Z,10.50
2017-10-28T12:11:09.324Z,10.60
2017-10-28T12:13:38.494Z,10.60
2017-10-28T12:16:06.893Z,10.60
2017-10-28T12:18:36.088Z,10.50
2017-10-28T12:21:05.350Z,10.20
2017-10-28T12:23:33.778Z,10.20
2017-10-28T12:26:02.966Z,10.50
2017-10-28T12:28:32.142Z,10.50
2017-10-28T12:31:00.582Z,10.50
2017-10-28T12:33:29.242Z,10.60
2017-10-28T12:35:57.659Z,10.60
2017-10-28T12:38:26.069Z,10.50
2017-10-28T12:40:54.497Z,10.30
2017-10-28T12:43:22.897Z,10.20
2017-10-28T12:45:51.307Z,10.20
2017-10-28T12:48:19.739Z,10.10
2017-10-28T12:50:48.133Z,10.10
2017-10-28T12:53:16.548Z,10.30
2017-10-28T12:55:45.747Z,10.20
2017-10-28T12:58:14.927Z,10.20
2017-10-28T13:00:43.335Z,10.20
2017-10-28T13:03:12.535Z,10.30
2017-10-28T13:05:40.947Z,10.30
2017-10-28T13:08:09.355Z,10.30
2017-10-28T13:10:38.555Z,10.40
2017-10-28T13:13:06.966Z,10.40
2017-10-28T13:15:35.386Z,10.40
2017-10-28T13:18:03.800Z,10.30
2017-10-28T13:20:31.866Z,10.30
2017-10-28T13:23:00.275Z,10.30
2017-10-28T13:25:28.698Z,10.30
2017-10-28T13:27:57.133Z,10.20
2017-10-28T13:30:25.554Z,10.20
2017-10-28T13:32:53.978Z,10.20
2017-10-28T13:35:23.166Z,10.30
2017-10-28T13:37:52.342Z,10.20
2017-10-28T13:40:20.992Z,10.20
2017-10-28T13:42:49.409Z,10.10
2017-10-28T13:45:17.806Z,10.00
2017-10-28T13:47:46.648Z,10.00
2017-10-28T13:50:15.059Z,10.00
2017-10-28T13:52:43.469Z,10.10
2017-10-28T13:55:11.887Z,10.00
2017-10-28T13:57:40.303Z,10.00
2017-10-28T14:00:09.475Z,10.00
2017-10-28T14:02:37.901Z,10.00
2017-10-28T14:05:06.312Z,9.90
2017-10-28T14:07:34.712Z,9.90
2017-10-28T14:10:03.127Z,9.90
2017-10-28T14:12:32.295Z,9.90
2017-10-28T14:15:00.730Z,9.80
2017-10-28T14:17:29.143Z,9.80
2017-10-28T14:19:57.750Z,9.80
2017-10-28T14:22:26.411Z,9.70
2017-10-28T14:24:54.839Z,9.70
2017-10-28T14:27:23.241Z,9.70
2017-10-28T14:29:51.650Z,9.80
2017-10-28T14:32:20.066Z,9.80
2017-10-28T14:34:48.477Z,9.80
2017-10-28T14:37:16.877Z,9.70
2017-10-28T14:39:45.346Z,9.70
2017-10-28T14:42:13.746Z,9.70
2017-10-28T14:44:42.146Z,9.60
2017-10-28T14:47:11.330Z,9.50
2017-10-28T14:49:39.738Z,9.50
2017-10-28T14:52:08.197Z,9.50
2017-10-28T14:54:37.580Z,9.50
2017-10-28T14:57:05.985Z,9.50
2017-10-28T14:59:34.817Z,9.50
2017-10-28T15:02:03.231Z,9.50
2017-10-28T15:04:31.443Z,9.50
2017-10-28T15:06:59.670Z,9.50
2017-10-28T15:09:28.103Z,9.50
2017-10-28T15:11:56.530Z,9.50
2017-10-28T15:14:24.934Z,9.50
2017-10-28T15:16:54.111Z,9.40
2017-10-28T15:19:22.524Z,9.40
2017-10-28T15:21:50.935Z,9.40
2017-10-28T15:24:19.351Z,9.40
2017-10-28T15:26:48.531Z,9.30
2017-10-28T15:29:16.959Z,9.30
2017-10-28T15:31:45.392Z,9.30
2017-10-28T15:34:13.798Z,9.30
2017-10-28T15:36:42.972Z,9.30
2017-10-28T15:39:11.589Z,9.30
2017-10-28T15:41:39.999Z,9.30
2017-10-28T15:44:08.401Z,9.30
2017-10-28T15:46:37.115Z,9.30
2017-10-28T15:49:06.544Z,9.20
2017-10-28T15:51:35.034Z,9.20
2017-10-28T15:54:03.467Z,9.20
2017-10-28T15:56:32.803Z,9.20
2017-10-28T15:59:01.213Z,9.20
2017-10-28T16:01:29.645Z,9.20
2017-10-28T16:03:58.831Z,9.20
2017-10-28T16:06:28.015Z,9.20
2017-10-28T16:08:57.210Z,9.20
2017-10-28T16:11:25.611Z,9.20
2017-10-28T16:13:54.031Z,9.20
2017-10-28T16:16:22.459Z,9.20
2017-10-28T16:18:51.647Z,9.20
2017-10-28T16:21:20.051Z,9.10
2017-10-28T16:23:48.466Z,9.20
2017-10-28T16:26:16.875Z,9.20
2017-10-28T16:28:45.276Z,9.10
2017-10-28T16:31:14.480Z,9.10
2017-10-28T16:33:42.886Z,9.10
2017-10-28T16:36:11.310Z,9.10
2017-10-28T16:38:39.722Z,9.10
2017-10-28T16:41:08.126Z,9.10
2017-10-28T16:43:36.540Z,9.10
2017-10-28T16:46:05.742Z,9.10
2017-10-28T16:48:34.143Z,9.10
2017-10-28T16:51:02.549Z,9.10
2017-10-28T16:53:31.117Z,9.10
2017-10-28T16:55:59.530Z,9.10
2017-10-28T16:58:27.933Z,9.10
2017-10-28T17:00:56.552Z,9.10
2017-10-28T17:03:25.259Z,9.10
2017-10-28T17:05:53.677Z,9.10
2017-10-28T17:08:22.117Z,9.00
2017-10-28T17:10:50.870Z,9.10
2017-10-28T17:13:20.036Z,9.10
2017-10-28T17:15:48.461Z,9.10
2017-10-28T17:18:16.866Z,9.10
2017-10-28T17:20:45.277Z,9.10
2017-10-28T17:23:13.717Z,9.00
2017-10-28T17:25:42.135Z,9.10
2017-10-28T17:28:10.550Z,9.10
2017-10-28T17:30:38.978Z,9.10
2017-10-28T17:33:07.387Z,9.10
2017-10-28T17:35:36.562Z,9.10
2017-10-28T17:38:05.177Z,9.10
2017-10-28T17:40:33.600Z,9.10
2017-10-28T17:43:01.838Z,9.10
2017-10-28T17:45:30.328Z,9.10
2017-10-28T17:47:58.729Z,9.10
2017-10-28T17:50:27.136Z,9.10
2017-10-28T17:52:55.553Z,9.10
2017-10-28T17:55:23.964Z,9.10
2017-10-28T17:57:52.364Z,9.10
2017-10-28T18:00:20.783Z,9.10
2017-10-28T18:02:49.189Z,9.10
2017-10-28T18:05:17.599Z,9.10
2017-10-28T18:07:46.047Z,9.10
2017-10-28T18:10:14.449Z,9.10
2017-10-28T18:12:42.852Z,9.20
2017-10-28T18:15:12.291Z,9.20
2017-10-28T18:17:40.697Z,9.10
2017-10-28T18:20:09.098Z,9.20
2017-10-28T18:22:37.182Z,9.20
2017-10-28T18:25:06.351Z,9.10
2017-10-28T18:27:34.754Z,9.10
2017-10-28T18:30:03.594Z,9.10
2017-10-28T18:32:32.062Z,9.10
2017-10-28T18:35:00.737Z,9.10
2017-10-28T18:37:29.170Z,9.10
2017-10-28T18:39:57.584Z,9.20
2017-10-28T18:42:26.016Z,9.20
2017-10-28T18:44:54.434Z,9.20
2017-10-28T18:47:22.946Z,9.20
2017-10-28T18:49:51.401Z,9.20
2017-10-28T18:52:19.650Z,9.20
2017-10-28T18:54:48.059Z,9.20
2017-10-28T18:57:16.556Z,9.20
2017-10-28T18:59:44.983Z,9.20
2017-10-28T19:02:14.178Z,9.20
2017-10-28T19:04:42.587Z,9.20
2017-10-28T19:07:11.014Z,9.20
2017-10-28T19:09:39.417Z,9.20
2017-10-28T19:12:07.883Z,9.20
2017-10-28T19:14:36.304Z,9.20
2017-10-28T19:17:04.711Z,9.20
2017-10-28T19:19:33.125Z,9.20
2017-10-28T19:22:01.551Z,9.20
2017-10-28T19:24:29.954Z,9.10
2017-10-28T19:26:58.359Z,9.10
2017-10-28T19:29:28.283Z,9.20
2017-10-28T19:31:56.692Z,9.20
2017-10-28T19:34:25.982Z,9.20
2017-10-28T19:36:55.161Z,9.20
2017-10-28T19:39:24.342Z,9.20
2017-10-28T19:41:52.750Z,9.20
2017-10-28T19:44:21.964Z,9.20
2017-10-28T19:46:50.374Z,9.20
2017-10-28T19:49:18.770Z,9.20
2017-10-28T19:51:47.185Z,9.20
2017-10-28T19:54:16.356Z,9.20
2017-10-28T19:56:46.084Z,9.20
2017-10-28T19:59:15.275Z,9.20
2017-10-28T20:01:44.451Z,9.20
2017-10-28T20:04:12.860Z,9.20
2017-10-28T20:06:42.052Z,9.10
2017-10-28T20:09:11.233Z,9.10
2017-10-28T20:11:39.634Z,9.10
2017-10-28T20:14:08.830Z,9.10
2017-10-28T20:16:38.019Z,9.10
2017-10-28T20:19:07.190Z,9.10
2017-10-28T20:21:35.614Z,9.10
2017-10-28T20:24:04.026Z,9.10
2017-10-28T20:26:32.435Z,9.10
2017-10-28T20:29:00.747Z,9.10
2017-10-28T20:31:29.163Z,9.00
2017-10-28T20:33:57.574Z,8.90
2017-10-28T20:36:26.815Z,8.80
2017-10-28T20:38:55.217Z,8.80
2017-10-28T20:41:23.631Z,8.80
2017-10-28T20:43:52.115Z,8.80
2017-10-28T20:46:21.279Z,8.80
2017-10-28T20:48:49.689Z,8.70
2017-10-28T20:51:18.874Z,8.80
2017-10-28T20:53:47.296Z,8.80
2017-10-28T20:56:15.705Z,8.80
2017-10-28T20:58:44.135Z,8.90
2017-10-28T21:01:14.183Z,8.90
2017-10-28T21:03:42.590Z,8.90
2017-10-28T21:06:11.211Z,8.80
2017-10-28T21:08:40.375Z,8.80
2017-10-28T21:11:08.789Z,8.80
2017-10-28T21:13:37.982Z,8.80
2017-10-28T21:16:06.488Z,8.80
2017-10-28T21:18:34.895Z,8.80
2017-10-28T21:21:03.331Z,8.80
2017-10-28T21:23:31.738Z,8.80
2017-10-28T21:26:00.140Z,8.80
2017-10-28T21:28:28.565Z,8.80
2017-10-28T21:30:56.991Z,8.80
2017-10-28T21:33:25.401Z,8.70
2017-10-28T21:35:54.582Z,8.60
2017-10-28T21:38:23.009Z,8.50
2017-10-28T21:40:51.409Z,8.40
2017-10-28T21:43:19.818Z,8.30
2017-10-28T21:45:48.227Z,8.30
2017-10-28T21:48:16.640Z,8.30
2017-10-28T21:50:45.057Z,8.30
2017-10-28T21:53:13.466Z,8.40
2017-10-28T21:55:41.861Z,8.40
2017-10-28T21:58:10.296Z,8.50
2017-10-28T22:00:38.714Z,8.40
2017-10-28T22:03:07.126Z,8.20
2017-10-28T22:05:35.550Z,8.10
2017-10-28T22:08:04.381Z,7.80
2017-10-28T22:10:32.774Z,7.90
2017-10-28T22:13:01.201Z,7.70
2017-10-28T22:15:29.606Z,7.70
2017-10-28T22:17:58.012Z,7.70
2017-10-28T22:20:26.438Z,7.70
2017-10-28T22:22:54.842Z,7.60
2017-10-28T22:25:23.241Z,7.70
2017-10-28T22:27:51.680Z,7.80
2017-10-28T22:30:20.081Z,7.80
2017-10-28T22:32:48.479Z,7.70
2017-10-28T22:35:16.914Z,7.50
2017-10-28T22:37:45.317Z,7.30
2017-10-28T22:40:13.919Z,7.30
2017-10-28T22:42:42.391Z,7.20
2017-10-28T22:45:10.803Z,7.20
2017-10-28T22:47:39.971Z,7.20
2017-10-28T22:50:07.710Z,7.10
2017-10-28T22:52:36.123Z,7.20
2017-10-28T22:55:03.833Z,7.20
2017-10-28T22:57:32.262Z,7.20
2017-10-28T23:00:00.666Z,7.20
2017-10-28T23:02:29.838Z,7.10
2017-10-28T23:04:59.026Z,7.10
2017-10-28T23:07:27.092Z,7.00
2017-10-28T23:09:55.494Z,7.00
2017-10-28T23:12:23.923Z,6.90
2017-10-28T23:14:52.343Z,6.90
2017-10-28T23:17:20.754Z,6.90
2017-10-28T23:19:50.162Z,6.80
2017-10-28T23:22:18.565Z,6.80
2017-10-28T23:24:46.966Z,6.80
2017-10-28T23:27:15.393Z,6.80
2017-10-28T23:29:43.800Z,6.80
2017-10-28T23:32:12.207Z,6.80
2017-10-28T23:34:40.617Z,6.80
2017-10-28T23:37:09.797Z,6.80
2017-10-28T23:39:38.201Z,6.80
2017-10-28T23:42:06.434Z,6.80
2017-10-28T23:44:34.852Z,6.80
2017-10-28T23:47:03.260Z,6.80
2017-10-28T23:49:31.679Z,6.80
2017-10-28T23:52:00.127Z,6.80
2017-10-28T23:54:28.542Z,6.80
2017-10-28T23:56:56.959Z,6.80
2017-10-28T23:59:25.362Z,6.80
